Time;durP1;ratioP1;P1;durP2;ratioP2;P2;SDS_P1;SDS_P2;PMS_P1;PMS_P2;Temp;Humidity;BMP_temperature;BMP_pressure;BME280_temperature;BME280_humidity;BME280_pressure;Samples;Min_cycle;Max_cycle;Signal;HPM_P1;HPM_P2
2022/06/11 00:00:18;;;;;;;10.82;5.42;;;;;;;12.87;63.24;100866.23;2182008;81;29358;-57
2022/06/11 00:03:22;;;;;;;;;;;;;;;12.83;63.30;100881.23;2184849;81;28059;-57
2022/06/11 00:06:28;;;;;;;14.10;7.12;;;;;;;12.79;63.51;100871.60;2182071;81;29901;-56
2022/06/11 00:09:31;;;;;;;11.30;6.22;;;;;;;12.72;63.47;100873.23;2182506;81;30997;-56
2022/06/11 00:12:35;;;;;;;9.75;5.45;;;;;;;12.67;63.50;100871.73;2182271;81;32965;-57
2022/06/11 00:15:40;;;;;;;8.15;5.33;;;;;;;12.63;63.65;100878.19;2182376;81;29335;-56
2022/06/11 00:18:42;;;;;;;;;;;;;;;12.58;63.71;100879.77;2185198;81;27706;-56
2022/06/11 00:21:45;;;;;;;8.78;6.12;;;;;;;12.54;64.01;100883.09;2182324;81;28635;-56
2022/06/11 00:24:47;;;;;;;9.95;5.35;;;;;;;12.48;63.99;100875.31;2113526;84;30745;-56
2022/06/11 00:27:49;;;;;;;11.63;5.95;;;;;;;12.44;64.09;100880.43;2113387;84;34365;-58
2022/06/11 00:30:51;;;;;;;8.93;5.58;;;;;;;12.41;64.32;100877.42;2113482;84;30692;-56
2022/06/11 00:33:53;;;;;;;7.25;5.40;;;;;;;12.37;64.28;100878.52;2113815;84;27708;-57
2022/06/11 00:36:56;;;;;;;12.35;6.05;;;;;;;12.35;64.27;100884.91;2113641;84;29116;-56
2022/06/11 00:39:58;;;;;;;9.05;4.97;;;;;;;12.30;64.34;100879.77;2113846;84;31814;-57
2022/06/11 00:43:01;;;;;;;8.73;6.28;;;;;;;12.28;64.54;100878.97;2113358;84;34349;-56
2022/06/11 00:46:40;;;;;;;8.58;5.22;;;;;;;12.24;64.63;100885.42;2111867;83;30484;-57
2022/06/11 00:49:56;;;;;;;7.92;5.62;;;;;;;12.21;64.78;100874.81;2107447;84;27681;-56
2022/06/11 00:53:00;;;;;;;8.03;6.47;;;;;;;12.16;64.89;100877.23;2126669;83;29931;-57
2022/06/11 00:56:06;;;;;;;11.30;5.95;;;;;;;12.13;65.03;100878.75;2143261;83;31947;-57
2022/06/11 00:59:11;;;;;;;10.98;5.70;;;;;;;12.10;65.04;100881.57;2143690;83;33784;-56
2022/06/11 01:02:13;;;;;;;9.90;6.15;;;;;;;12.08;65.18;100879.91;2143689;83;29331;-56
2022/06/11 01:05:23;;;;;;;12.10;6.08;;;;;;;12.06;65.29;100881.80;2143804;83;27691;-56
2022/06/11 01:08:56;;;;;;;10.98;6.20;;;;;;;12.02;65.42;100883.73;2143742;82;29224;-56
2022/06/11 01:12:29;;;;;;;10.82;6.20;;;;;;;11.99;65.40;100884.75;2143332;83;31559;-58
2022/06/11 01:15:40;;;;;;;9.03;5.85;;;;;;;11.96;65.61;100886.69;2142989;82;33429;-56
2022/06/11 01:19:27;;;;;;;8.28;5.85;;;;;;;11.93;65.92;100890.84;2143692;83;29331;-56
2022/06/11 01:22:54;;;;;;;11.68;6.10;;;;;;;11.90;65.90;100886.95;2142973;82;27661;-56
2022/06/11 01:26:16;;;;;;;7.30;5.25;;;;;;;11.86;65.97;100883.55;2142371;83;29892;-56
2022/06/11 01:29:46;;;;;;;9.13;5.58;;;;;;;11.83;66.17;100887.70;2149326;82;31699;-57
2022/06/11 01:33:18;;;;;;;10.70;6.42;;;;;;;11.79;66.29;100887.44;2149220;82;34174;-57
2022/06/11 01:36:25;;;;;;;11.43;5.37;;;;;;;11.74;66.27;100883.63;2084019;85;30221;-57
2022/06/11 01:39:58;;;;;;;10.82;5.85;;;;;;;11.71;66.42;100886.44;2083930;85;27779;-57
2022/06/11 01:43:22;;;;;;;8.85;5.40;;;;;;;11.67;66.59;100882.14;2061144;85;27718;-56
2022/06/11 01:46:29;;;;;;;10.30;4.95;;;;;;;11.62;66.70;100879.67;2061773;85;31743;-56
2022/06/11 01:49:36;;;;;;;8.55;5.62;;;;;;;11.60;66.75;100885.58;2035105;87;33027;-57
2022/06/11 01:52:49;;;;;;;11.28;6.60;;;;;;;11.58;66.76;100884.80;2035596;87;29517;-57
2022/06/11 01:56:36;;;;;;;11.15;5.92;;;;;;;11.55;66.83;100887.61;2035875;87;27641;-57
2022/06/11 02:00:07;;;;;;;9.70;5.70;;;;;;;11.52;67.06;100883.72;2036182;87;29778;-57
2022/06/11 02:03:32;;;;;;;11.28;5.85;;;;;;;11.49;67.09;100885.19;2036604;87;31672;-57
2022/06/11 02:06:39;;;;;;;9.48;6.17;;;;;;;11.45;67.12;100886.26;2045251;85;34118;-58
2022/06/11 02:10:04;;;;;;;10.18;6.22;;;;;;;11.42;67.12;100887.27;2103166;84;30511;-57
2022/06/11 02:13:20;;;;;;;11.95;6.60;;;;;;;11.38;67.32;100885.20;2141081;83;27723;-57
2022/06/11 02:16:34;;;;;;;11.53;7.47;;;;;;;11.36;67.43;100885.73;2035768;87;29534;-58
2022/06/11 02:19:47;;;;;;;11.57;7.53;;;;;;;11.33;67.55;100875.62;2035766;87;32269;-57
2022/06/11 02:23:06;;;;;;;11.48;6.58;;;;;;;11.31;67.50;100885.05;2035960;87;33187;-57
2022/06/11 02:26:22;;;;;;;13.98;7.70;;;;;;;11.28;67.53;100879.81;2035682;87;30535;-57
2022/06/11 02:29:25;;;;;;;11.08;6.50;;;;;;;11.27;67.72;100883.92;2035942;87;27689;-57
2022/06/11 02:32:29;;;;;;;7.72;5.70;;;;;;;11.24;67.85;100875.06;2035633;87;30037;-57
2022/06/11 02:35:51;;;;;;;8.00;6.22;;;;;;;11.23;67.87;100889.89;2036077;87;32215;-60
2022/06/11 02:38:56;;;;;;;10.85;6.37;;;;;;;11.23;67.99;100893.92;2035620;87;34335;-57
2022/06/11 02:41:59;;;;;;;12.63;5.85;;;;;;;11.24;68.22;100906.39;2036174;87;30115;-63
2022/06/11 02:45:01;;;;;;;12.50;6.35;;;;;;;11.25;68.32;100902.77;2055494;85;27812;-57
2022/06/11 02:48:04;;;;;;;9.23;7.40;;;;;;;11.26;68.48;100900.47;2058665;86;29445;-58
2022/06/11 02:51:06;;;;;;;10.15;7.15;;;;;;;11.28;68.44;100900.42;2055219;86;31077;-57
2022/06/11 02:54:08;;;;;;;11.10;7.10;;;;;;;11.30;68.54;100903.42;2119973;83;33709;-57
2022/06/11 02:57:14;;;;;;;9.43;6.80;;;;;;;11.34;68.57;100908.18;2125880;83;30190;-58
2022/06/11 03:00:30;;;;;;;10.28;7.40;;;;;;;11.37;68.65;100900.89;2125302;83;27667;-58
2022/06/11 03:03:33;;;;;;;9.88;6.90;;;;;;;11.41;68.61;100909.67;2125984;83;29961;-60
2022/06/11 03:06:38;;;;;;;15.05;7.08;;;;;;;11.45;68.66;100915.77;2125825;83;31909;-55
2022/06/11 03:09:41;;;;;;;8.15;6.37;;;;;;;11.50;68.72;100914.63;2126222;83;32972;-56
2022/06/11 03:12:43;;;;;;;12.25;6.90;;;;;;;11.55;68.76;100916.64;2125812;83;29364;-55
2022/06/11 03:15:45;;;;;;;9.58;6.90;;;;;;;11.61;68.90;100914.64;2163264;82;28159;-56
2022/06/11 03:18:47;;;;;;;9.95;6.70;;;;;;;11.68;68.90;100919.67;2164774;82;29365;-57
2022/06/11 03:21:53;;;;;;;9.80;6.58;;;;;;;11.76;68.88;100910.39;2165128;82;31106;-57
2022/06/11 03:24:56;;;;;;;9.78;6.42;;;;;;;11.82;68.97;100913.70;2165227;82;32990;-58
2022/06/11 03:27:58;;;;;;;12.78;6.58;;;;;;;11.90;68.99;100909.32;2165124;81;29695;-57
2022/06/11 03:31:01;;;;;;;10.75;7.03;;;;;;;12.00;68.95;100916.48;2164987;82;27616;-57
2022/06/11 03:34:03;;;;;;;13.18;7.55;;;;;;;12.10;69.04;100916.94;2165182;82;28793;-62
2022/06/11 03:37:05;;;;;;;10.48;7.00;;;;;;;12.18;69.10;100917.93;2165182;81;31676;-57
2022/06/11 03:40:10;;;;;;;10.35;6.87;;;;;;;12.29;69.09;100918.33;2164849;81;34215;-58
2022/06/11 03:43:12;;;;;;;9.13;5.53;;;;;;;12.38;69.09;100921.91;2165322;81;29330;-57
2022/06/11 03:46:14;;;;;;;10.32;6.80;;;;;;;12.48;69.15;100928.20;2165395;80;27674;-58
2022/06/11 03:49:18;;;;;;;13.25;6.87;;;;;;;12.60;69.12;100924.92;2143424;83;30141;-58
2022/06/11 03:52:22;;;;;;;10.25;6.78;;;;;;;12.69;69.12;100924.47;2142724;83;31266;-60
2022/06/11 03:55:25;;;;;;;13.30;7.43;;;;;;;12.80;69.06;100927.98;2178825;81;32951;-57
2022/06/11 03:58:27;;;;;;;10.03;7.25;;;;;;;12.90;69.05;100927.94;2143306;83;30235;-58
2022/06/11 04:01:29;;;;;;;11.40;7.78;;;;;;;13.02;69.02;100931.81;2142526;83;27638;-57
2022/06/11 04:04:31;;;;;;;9.95;7.37;;;;;;;13.14;69.05;100938.41;2178322;81;29879;-58
2022/06/11 04:07:34;;;;;;;13.30;7.90;;;;;;;13.27;69.17;100935.98;2143409;83;32217;-58
2022/06/11 04:10:37;;;;;;;14.63;8.00;;;;;;;13.42;69.13;100934.34;2142610;83;33120;-58
2022/06/11 04:13:42;;;;;;;17.23;9.63;;;;;;;13.56;69.04;100936.33;2178301;81;30538;-57
2022/06/11 04:16:49;;;;;;;18.75;9.10;;;;;;;13.71;68.98;100935.13;2178851;81;27698;-58
2022/06/11 04:19:53;;;;;;;18.37;11.75;;;;;;;13.86;68.94;100937.50;2177774;81;28740;-57
2022/06/11 04:22:56;;;;;;;17.92;10.70;;;;;;;14.02;68.89;100934.38;2178578;81;30998;-58
2022/06/11 04:26:02;;;;;;;24.72;11.97;;;;;;;14.19;68.86;100931.23;2178520;81;33800;-57
2022/06/11 04:29:07;;;;;;;19.90;12.28;;;;;;;14.37;68.75;100934.27;2178266;81;30557;-57
2022/06/11 04:32:12;;;;;;;19.37;12.05;;;;;;;14.57;68.59;100937.66;2178899;81;27730;-57
2022/06/11 04:35:14;;;;;;;19.75;11.70;;;;;;;14.78;68.59;100929.34;2178614;81;29056;-57
2022/06/11 04:38:17;;;;;;;16.67;10.08;;;;;;;15.01;68.35;100928.90;2178352;81;32334;-56
2022/06/11 04:41:19;;;;;;;14.85;11.08;;;;;;;15.24;67.94;100937.95;2178252;81;34325;-55
2022/06/11 04:44:22;;;;;;;16.85;9.90;;;;;;;15.53;68.06;100931.28;2178519;81;29302;-58
2022/06/11 04:47:27;;;;;;;12.10;8.73;;;;;;;16.59;68.82;100926.52;2143349;81;28088;-58
2022/06/11 04:50:29;;;;;;;;;;;;;;;18.31;68.05;100924.36;2145056;82;28739;-55
2022/06/11 04:53:31;;;;;;;10.82;7.08;;;;;;;20.17;65.73;100921.70;2178453;81;31686;-56
2022/06/11 04:56:33;;;;;;;8.55;6.85;;;;;;;21.96;64.32;100919.52;2178187;81;33656;-56
2022/06/11 04:59:35;;;;;;;8.58;6.70;;;;;;;23.60;62.08;100917.42;2178376;81;29742;-56
2022/06/11 05:02:37;;;;;;;10.60;6.85;;;;;;;25.11;59.60;100915.98;2178603;81;27717;-56
2022/06/11 05:05:39;;;;;;;7.85;6.70;;;;;;;26.52;57.77;100910.97;2178076;81;29937;-56
2022/06/11 05:08:41;;;;;;;15.83;7.83;;;;;;;27.71;55.67;100913.58;2178160;81;32384;-56
2022/06/11 05:11:45;;;;;;;6.65;5.47;;;;;;;28.86;53.28;100917.00;2178588;81;33924;-56
2022/06/11 05:14:46;;;;;;;7.60;6.30;;;;;;;29.93;51.43;100917.19;2178933;81;29333;-56
2022/06/11 05:17:49;;;;;;;10.05;5.67;;;;;;;30.84;49.57;100915.58;2143450;83;27628;-56
2022/06/11 05:20:51;;;;;;;6.35;5.67;;;;;;;31.72;47.72;100919.22;2142306;83;30030;-56
2022/06/11 05:23:53;;;;;;;8.55;5.33;;;;;;;32.50;45.95;100923.78;2178335;81;32415;-56
2022/06/11 05:27:00;;;;;;;8.80;5.67;;;;;;;33.16;44.33;100926.46;2178295;81;34213;-57
2022/06/11 05:30:07;;;;;;;10.43;5.97;;;;;;;33.75;42.88;100925.33;2178567;81;30358;-57
2022/06/11 05:33:10;;;;;;;10.43;5.50;;;;;;;34.29;41.45;100925.26;2178592;81;27679;-57
2022/06/11 05:36:14;;;;;;;8.03;5.20;;;;;;;34.81;39.79;100921.09;2178544;81;29890;-58
2022/06/11 05:39:16;;;;;;;;;;;;;;;35.29;38.99;100926.72;2181011;81;31935;-58
2022/06/11 05:42:21;;;;;;;8.23;5.33;;;;;;;35.69;36.91;100925.55;2178418;81;33099;-58
2022/06/11 05:45:31;;;;;;;5.87;4.95;;;;;;;36.07;36.59;100923.18;2178481;81;30105;-58
2022/06/11 05:48:43;;;;;;;5.17;4.45;;;;;;;36.10;35.62;100919.90;2166680;80;27799;-58
2022/06/11 05:51:51;;;;;;;9.05;4.72;;;;;;;36.34;34.90;100922.30;2156001;82;29094;-58
2022/06/11 05:54:54;;;;;;;6.40;4.35;;;;;;;36.42;33.99;100922.53;2156380;82;30876;-58
2022/06/11 05:57:59;;;;;;;6.40;4.90;;;;;;;36.63;32.92;100922.64;2134137;83;33791;-58
2022/06/11 06:01:02;;;;;;;7.05;4.08;;;;;;;36.89;32.50;100925.30;2133894;83;29167;-59
2022/06/11 06:04:04;;;;;;;8.18;3.95;;;;;;;37.07;31.20;100918.82;2134552;83;27603;-58
2022/06/11 06:07:08;;;;;;;3.85;3.10;;;;;;;37.23;31.15;100927.08;2134444;83;28838;-58
2022/06/11 06:10:10;;;;;;;3.52;3.12;;;;;;;37.55;29.17;100930.98;2134332;83;31012;-58
2022/06/11 06:16:33;;;;;;;5.12;3.08;;;;;;;37.83;29.32;100925.22;2155907;82;30027;-58
2022/06/11 06:19:35;;;;;;;4.22;2.77;;;;;;;38.09;29.00;100930.02;2096315;84;27719;-58
2022/06/11 06:22:37;;;;;;;4.22;2.80;;;;;;;38.33;28.51;100930.83;2155793;82;29904;-58
2022/06/11 06:25:39;;;;;;;3.50;2.85;;;;;;;38.75;28.36;100932.55;2096552;84;32492;-58
2022/06/11 06:28:41;;;;;;;5.72;3.20;;;;;;;38.89;26.78;100935.95;2155860;82;34306;-58
2022/06/11 06:31:43;;;;;;;3.58;3.27;;;;;;;38.94;26.13;100935.19;2096659;84;29877;-58
2022/06/11 06:34:46;;;;;;;3.27;2.50;;;;;;;38.81;26.33;100938.56;2156307;82;27581;-58
2022/06/11 06:37:48;;;;;;;2.90;2.50;;;;;;;38.99;25.85;100938.93;2096473;84;29997;-58
2022/06/11 06:40:50;;;;;;;3.47;3.17;;;;;;;39.09;25.60;100936.04;2155827;82;32409;-58
2022/06/11 06:43:52;;;;;;;2.58;2.25;;;;;;;39.03;25.52;100938.73;2096022;84;34354;-58
2022/06/11 06:46:54;;;;;;;2.67;2.47;;;;;;;39.08;25.05;100936.57;2155794;82;30652;-59
2022/06/11 06:49:58;;;;;;;4.10;2.72;;;;;;;39.24;24.96;100943.32;2142240;82;27597;-58
2022/06/11 06:53:00;;;;;;;5.60;2.72;;;;;;;39.25;25.23;100941.35;2143775;81;28671;-57
2022/06/11 06:56:02;;;;;;;4.40;2.72;;;;;;;39.39;25.08;100931.53;2143422;82;32268;-57
2022/06/11 06:59:05;;;;;;;3.15;2.60;;;;;;;39.50;24.68;100935.36;2142647;83;33500;-58
2022/06/11 07:02:10;;;;;;;6.08;2.70;;;;;;;39.60;24.29;100939.76;2178744;81;30164;-58
2022/06/11 07:05:14;;;;;;;5.20;2.90;;;;;;;39.59;24.57;100940.00;2178714;81;27670;-57
2022/06/11 07:08:17;;;;;;;4.08;2.00;;;;;;;39.76;24.32;100945.08;2143760;82;28639;-58
2022/06/11 07:11:21;;;;;;;7.53;2.87;;;;;;;39.65;24.08;100936.18;2143705;83;30890;-58
2022/06/11 07:14:23;;;;;;;3.33;2.20;;;;;;;39.76;23.87;100945.08;2142570;83;32993;-57
2022/06/11 07:17:29;;;;;;;4.60;2.37;;;;;;;39.83;23.55;100940.69;2178712;81;34739;-58
2022/06/11 07:20:33;;;;;;;3.30;2.40;;;;;;;39.83;23.55;100940.69;2178833;81;27662;-59
2022/06/11 07:23:39;;;;;;;4.80;2.70;;;;;;;39.92;22.61;100936.89;2178642;81;28466;-58
2022/06/11 07:26:44;;;;;;;4.17;2.45;;;;;;;39.92;23.15;100938.30;2178679;81;31067;-57
2022/06/11 07:30:04;;;;;;;5.08;2.50;;;;;;;40.12;23.25;100934.95;2178643;81;33054;-57
2022/06/11 07:33:12;;;;;;;3.87;2.30;;;;;;;40.30;22.87;100938.02;2176627;81;30183;-57
2022/06/11 07:36:16;;;;;;;2.60;2.40;;;;;;;40.36;22.47;100936.98;2178664;81;28211;-57
2022/06/11 07:39:18;;;;;;;3.58;2.75;;;;;;;40.08;21.68;100930.95;2178286;81;29538;-58
2022/06/11 07:42:20;;;;;;;3.15;2.62;;;;;;;39.55;22.01;100931.25;2178444;81;31033;-58
2022/06/11 07:45:22;;;;;;;7.17;2.40;;;;;;;39.44;22.34;100933.03;2143231;83;34213;-58
2022/06/11 07:48:24;;;;;;;3.45;2.10;;;;;;;39.48;21.86;100937.03;2145723;81;30524;-59
2022/06/11 07:51:26;;;;;;;3.67;2.33;;;;;;;39.46;21.95;100935.03;2183014;81;27705;-58
2022/06/11 07:54:28;;;;;;;3.30;2.35;;;;;;;39.41;21.96;100931.30;2153434;82;29724;-57
2022/06/11 07:57:30;;;;;;;2.70;2.30;;;;;;;39.31;21.63;100929.17;2182285;81;32422;-57
2022/06/11 08:00:40;;;;;;;3.65;2.08;;;;;;;39.09;21.36;100931.83;2153258;82;34300;-57
2022/06/11 08:03:42;;;;;;;2.22;2.02;;;;;;;38.60;21.30;100928.34;2182615;81;29985;-58
2022/06/11 08:06:44;;;;;;;2.12;1.90;;;;;;;38.42;21.71;100929.39;2153611;82;27664;-60
2022/06/11 08:09:46;;;;;;;3.10;2.00;;;;;;;38.43;21.61;100928.83;2153431;82;29237;-58
2022/06/11 08:12:49;;;;;;;3.55;2.20;;;;;;;38.34;21.83;100931.13;2153631;82;32209;-58
2022/06/11 08:15:53;;;;;;;4.25;2.02;;;;;;;38.38;21.98;100930.14;2182347;81;33849;-59
2022/06/11 08:18:55;;;;;;;2.62;1.70;;;;;;;38.35;21.80;100927.80;2182572;81;29497;-59
2022/06/11 08:21:57;;;;;;;3.98;2.08;;;;;;;38.28;21.62;100929.34;2182348;81;27691;-58
2022/06/11 08:24:59;;;;;;;3.15;2.12;;;;;;;38.28;21.20;100930.17;2182512;81;29124;-59
2022/06/11 08:28:01;;;;;;;2.70;1.92;;;;;;;37.61;20.97;100931.40;2182251;81;32270;-58
2022/06/11 08:31:05;;;;;;;2.67;2.00;;;;;;;37.19;21.13;100923.05;2182458;81;33550;-58
2022/06/11 08:34:06;;;;;;;2.37;1.90;;;;;;;36.78;21.51;100924.99;2182670;81;29389;-58
2022/06/11 08:37:09;;;;;;;4.30;1.82;;;;;;;36.69;21.78;100922.77;2182582;81;27701;-59
2022/06/11 08:40:16;;;;;;;2.17;2.00;;;;;;;36.62;21.83;100925.13;2182554;81;28745;-58
2022/06/11 08:43:28;;;;;;;4.50;2.27;;;;;;;36.42;21.47;100929.51;2181823;81;31097;-58
2022/06/11 08:46:36;;;;;;;3.67;2.00;;;;;;;36.16;21.87;100925.09;2153793;82;33605;-58
2022/06/11 08:49:44;;;;;;;2.70;1.75;;;;;;;36.01;21.91;100917.95;2148080;81;30193;-59
2022/06/11 08:52:47;;;;;;;3.62;1.70;;;;;;;35.80;21.94;100909.46;2143768;82;27668;-56
2022/06/11 08:55:49;;;;;;;3.72;1.85;;;;;;;35.82;22.07;100913.44;2122720;83;29011;-56
2022/06/11 08:59:20;;;;;;;3.95;2.55;;;;;;;35.85;21.67;100919.39;2143351;83;31453;-57
2022/06/11 09:02:47;;;;;;;7.45;2.08;;;;;;;35.70;21.79;100918.91;2057170;86;34342;-58
2022/06/11 09:06:10;;;;;;;2.42;1.52;;;;;;;35.33;21.37;100919.59;2057791;86;29468;-57
2022/06/11 09:09:35;;;;;;;4.43;1.90;;;;;;;34.76;21.93;100913.41;2087827;85;27731;-57
2022/06/11 09:13:00;;;;;;;3.30;1.60;;;;;;;34.46;22.13;100914.52;2086379;85;29592;-58
2022/06/11 09:16:19;;;;;;;3.98;2.25;;;;;;;33.97;21.87;100907.89;2076110;85;31709;-58
2022/06/11 09:19:41;;;;;;;2.83;1.60;;;;;;;33.75;22.00;100914.21;2076112;85;33381;-57
2022/06/11 09:22:54;;;;;;;3.58;1.52;;;;;;;33.08;22.31;100919.70;2090698;85;29393;-57
2022/06/11 09:26:07;;;;;;;2.62;1.65;;;;;;;32.63;22.91;100905.80;2090804;85;27801;-57
2022/06/11 09:29:48;;;;;;;2.77;1.60;;;;;;;32.48;23.09;100912.88;2090527;85;29595;-57
2022/06/11 09:33:10;;;;;;;3.02;1.70;;;;;;;32.45;23.20;100902.19;2027844;87;32203;-57
2022/06/11 09:36:33;;;;;;;3.83;1.55;;;;;;;32.39;23.51;100899.72;2027342;87;34298;-57
2022/06/11 09:39:52;;;;;;;2.08;1.20;;;;;;;32.39;23.60;100893.33;2026172;87;29325;-57
2022/06/11 09:43:32;;;;;;;2.77;1.85;;;;;;;32.29;23.81;100886.77;1995851;89;27698;-59
2022/06/11 09:46:43;;;;;;;4.67;1.90;;;;;;;32.30;24.14;100884.84;1995877;89;29806;-57
2022/06/11 09:50:20;;;;;;;2.25;1.50;;;;;;;32.33;24.21;100885.82;1995548;89;32008;-57
2022/06/11 09:53:49;;;;;;;3.58;1.62;;;;;;;32.27;24.38;100880.58;1998196;88;33518;-57
2022/06/11 09:56:59;;;;;;;5.15;1.65;;;;;;;31.90;24.48;100881.30;1960200;90;30177;-58
2022/06/11 10:00:27;;;;;;;4.42;1.60;;;;;;;31.53;24.79;100875.36;2001915;88;27807;-57
2022/06/11 10:03:56;;;;;;;2.58;1.70;;;;;;;31.15;24.70;100878.46;2004078;88;29884;-57
2022/06/11 10:07:05;;;;;;;7.62;1.87;;;;;;;30.75;25.10;100873.86;2004097;88;32008;-57
2022/06/11 10:10:18;;;;;;;4.30;1.85;;;;;;;30.55;25.84;100870.33;2001312;88;33890;-57
2022/06/11 10:13:49;;;;;;;3.12;1.90;;;;;;;30.43;25.49;100877.39;2003681;88;29341;-57
2022/06/11 10:17:17;;;;;;;2.95;1.70;;;;;;;30.22;25.71;100865.75;2004302;88;27800;-57
2022/06/11 10:20:31;;;;;;;3.20;1.77;;;;;;;30.22;25.69;100878.19;2128359;82;29912;-57
2022/06/11 10:23:53;;;;;;;2.83;1.70;;;;;;;30.29;26.28;100874.46;2155603;82;30861;-57
2022/06/11 10:27:02;;;;;;;1.47;1.30;;;;;;;30.43;25.96;100873.24;2191960;81;33360;-58
2022/06/11 10:30:33;;;;;;;4.55;1.95;;;;;;;30.36;26.05;100864.87;2191538;81;30171;-57
2022/06/11 10:33:49;;;;;;;3.33;1.40;;;;;;;30.39;26.13;100871.40;2191748;81;27658;-57
2022/06/11 10:37:08;;;;;;;1.52;1.40;;;;;;;30.23;26.05;100865.55;2191585;81;28672;-57
2022/06/11 10:40:33;;;;;;;3.50;1.37;;;;;;;30.16;26.19;100866.84;2191490;81;31893;-58
2022/06/11 10:44:05;;;;;;;4.10;1.47;;;;;;;30.07;26.34;100868.00;2191721;81;33756;-56
2022/06/11 10:47:27;;;;;;;2.85;1.57;;;;;;;30.04;26.46;100856.45;2074989;85;30620;-57
2022/06/11 10:50:33;;;;;;;1.40;1.30;;;;;;;30.01;26.27;100862.73;2076238;84;28371;-57
2022/06/11 10:53:43;;;;;;;2.90;1.52;;;;;;;29.90;26.42;100858.16;2076086;85;29958;-57
2022/06/11 10:56:53;;;;;;;3.85;1.87;;;;;;;29.80;26.41;100855.68;2076368;85;32135;-57
2022/06/11 11:00:21;;;;;;;3.62;1.50;;;;;;;29.73;26.08;100852.83;2076370;85;32975;-57
2022/06/11 11:03:46;;;;;;;4.15;1.67;;;;;;;29.63;26.15;100847.58;2076039;85;30209;-57
2022/06/11 11:07:08;;;;;;;3.92;1.50;;;;;;;29.46;25.82;100839.12;2076358;85;27895;-57
2022/06/11 11:10:42;;;;;;;2.45;1.75;;;;;;;29.03;25.90;100846.55;2076453;85;28886;-58
2022/06/11 11:13:46;;;;;;;4.05;1.72;;;;;;;28.68;26.52;100839.17;2076167;85;32507;-58
2022/06/11 11:16:52;;;;;;;1.97;1.20;;;;;;;28.32;26.81;100846.95;2092606;81;33089;-58
2022/06/11 11:23:23;;;;;;;2.60;1.57;;;;;;;28.09;27.49;100841.89;2142602;82;27687;-57
2022/06/11 11:26:35;;;;;;;3.12;1.50;;;;;;;28.14;27.48;100836.70;2158652;81;30581;-58
2022/06/11 11:30:01;;;;;;;4.92;1.30;;;;;;;28.22;27.27;100834.44;2178548;81;31936;-58
2022/06/11 11:33:25;;;;;;;2.87;1.22;;;;;;;28.33;27.38;100829.39;2178239;81;33393;-57
2022/06/11 11:36:29;;;;;;;3.30;1.20;;;;;;;28.40;27.42;100826.77;2178581;81;30788;-58
2022/06/11 11:39:34;;;;;;;3.65;1.50;;;;;;;28.34;27.22;100825.59;2159601;81;27591;-58
2022/06/11 11:42:39;;;;;;;2.02;1.35;;;;;;;28.29;27.54;100822.55;2178569;81;28620;-58
2022/06/11 11:45:49;;;;;;;2.87;1.70;;;;;;;28.36;27.44;100825.44;2143058;81;32301;-57
2022/06/11 11:48:55;;;;;;;5.75;1.40;;;;;;;28.32;27.11;100807.53;2139597;82;34013;-57
2022/06/11 11:52:16;;;;;;;10.13;1.50;;;;;;;28.35;27.04;100809.94;2143325;83;30181;-57
2022/06/11 11:55:31;;;;;;;1.50;1.10;;;;;;;28.30;27.10;100816.50;2143335;82;27712;-57
2022/06/11 11:58:40;;;;;;;1.57;1.20;;;;;;;28.25;27.46;100819.80;2142705;82;28643;-57
2022/06/11 12:01:44;;;;;;;2.40;1.45;;;;;;;28.12;27.33;100815.40;2143533;82;31099;-57
2022/06/11 12:05:02;;;;;;;1.65;1.27;;;;;;;27.96;27.32;100818.53;2142775;83;33756;-57
2022/06/11 12:08:28;;;;;;;3.27;1.25;;;;;;;27.68;27.54;100819.48;2177572;81;30671;-57
2022/06/11 12:11:35;;;;;;;2.10;1.02;;;;;;;27.43;27.39;100807.10;2143747;82;27810;-57
2022/06/11 12:14:47;;;;;;;2.27;1.25;;;;;;;27.36;27.59;100812.45;2142676;82;28651;-57
2022/06/11 12:18:03;;;;;;;2.17;1.40;;;;;;;27.36;27.93;100807.48;2178746;80;31839;-57
2022/06/11 12:21:10;;;;;;;1.67;1.10;;;;;;;27.45;28.23;100810.54;2178583;81;33780;-57
2022/06/11 12:24:17;;;;;;;5.40;1.50;;;;;;;27.56;28.21;100814.33;2159806;81;29337;-58
2022/06/11 12:27:35;;;;;;;1.70;0.90;;;;;;;27.70;28.23;100808.62;2178853;81;27628;-58
2022/06/11 12:30:38;;;;;;;2.37;1.25;;;;;;;27.72;27.55;100809.80;2175378;81;29534;-57
2022/06/11 12:33:43;;;;;;;2.47;1.07;;;;;;;27.66;27.26;100804.50;2178177;81;31664;-57
2022/06/11 12:37:19;;;;;;;1.30;0.80;;;;;;;27.65;27.69;100804.16;2178706;81;34096;-57
2022/06/11 12:41:13;;;;;;;1.37;1.00;;;;;;;27.63;28.14;100806.75;2178263;81;30640;-57
2022/06/11 12:44:26;;;;;;;2.25;0.90;;;;;;;27.65;28.08;100804.16;2141146;83;28286;-56
2022/06/11 12:47:40;;;;;;;3.40;1.22;;;;;;;27.79;28.41;100797.06;2141450;83;28764;-57
2022/06/11 12:51:01;;;;;;;;;;;;;;;27.95;28.44;100791.15;2143402;83;31316;-56
2022/06/11 12:54:20;;;;;;;3.10;1.07;;;;;;;28.08;28.41;100790.59;2141345;83;32993;-58
2022/06/11 12:57:39;;;;;;;1.98;1.57;;;;;;;28.19;28.04;100784.19;2141053;83;30540;-57
2022/06/11 13:01:02;;;;;;;2.87;1.10;;;;;;;28.25;27.53;100782.61;2141166;83;27650;-58
2022/06/11 13:04:24;;;;;;;1.22;1.00;;;;;;;28.35;27.95;100781.84;2112039;84;28657;-57
2022/06/11 13:07:56;;;;;;;1.82;1.35;;;;;;;28.42;27.64;100780.59;2104309;84;32151;-59
2022/06/11 13:11:21;;;;;;;5.40;1.20;;;;;;;28.51;27.69;100785.53;2111921;84;34139;-57
2022/06/11 13:14:53;;;;;;;1.20;1.00;;;;;;;28.57;27.58;100783.94;2076151;85;30508;-58
2022/06/11 13:18:17;;;;;;;6.65;1.57;;;;;;;28.55;27.21;100779.13;2076251;85;27736;-59
2022/06/11 13:21:46;;;;;;;3.10;1.40;;;;;;;28.37;26.75;100786.32;2075985;85;29857;-57
2022/06/11 13:25:20;;;;;;;4.85;1.05;;;;;;;28.32;27.35;100778.06;2075904;84;32309;-58
2022/06/11 13:28:44;;;;;;;4.47;1.30;;;;;;;28.36;27.26;100773.08;2075972;85;34176;-57
2022/06/11 13:31:57;;;;;;;3.13;1.30;;;;;;;28.43;27.41;100771.82;2076198;84;29941;-57
2022/06/11 13:35:07;;;;;;;3.05;1.40;;;;;;;28.46;27.06;100775.06;2076215;84;27843;-57
2022/06/11 13:38:40;;;;;;;2.17;1.25;;;;;;;28.41;27.06;100765.09;2075831;84;29830;-56
2022/06/11 13:42:02;;;;;;;2.00;1.25;;;;;;;28.30;26.64;100761.39;2151663;81;32143;-57
2022/06/11 13:45:30;;;;;;;2.05;1.20;;;;;;;28.30;27.12;100764.14;2112873;84;33463;-56
2022/06/11 13:49:10;;;;;;;3.77;1.25;;;;;;;28.28;27.15;100761.59;2112859;84;30629;-56
2022/06/11 13:55:10;;;;;;;1.77;1.10;;;;;;;28.31;27.07;100762.58;2078095;83;27748;-57
2022/06/11 13:55:33;;;;;;;3.17;1.32;;;;;;;28.28;27.33;100759.33;2043751;86;28872;-56
2022/06/11 13:58:43;;;;;;;3.27;1.40;;;;;;;28.26;27.21;100755.90;2061625;86;32258;-57
2022/06/11 14:02:02;;;;;;;3.20;1.50;;;;;;;28.23;27.49;100759.01;2060931;86;33847;-57
2022/06/11 14:05:08;;;;;;;4.80;1.25;;;;;;;28.21;27.53;100752.31;2024300;87;29685;-56
2022/06/11 14:08:11;;;;;;;3.37;1.50;;;;;;;28.25;27.67;100752.80;1990872;88;27765;-56
2022/06/11 14:11:39;;;;;;;6.00;1.57;;;;;;;28.22;27.66;100743.52;1997265;87;29921;-57
2022/06/11 14:14:42;;;;;;;1.98;1.20;;;;;;;28.26;27.58;100743.00;2046884;86;31234;-57
2022/06/11 14:17:51;;;;;;;2.75;1.22;;;;;;;28.22;27.68;100740.26;2046714;87;33972;-56
2022/06/11 14:21:00;;;;;;;4.30;1.85;;;;;;;28.22;27.67;100733.88;2066286;84;29362;-57
2022/06/11 14:24:04;;;;;;;4.20;1.45;;;;;;;28.16;27.80;100732.20;2113120;84;27699;-57
2022/06/11 14:27:29;;;;;;;3.00;1.30;;;;;;;28.09;27.78;100729.80;2113356;84;29459;-57
2022/06/11 14:30:31;;;;;;;1.85;1.20;;;;;;;28.02;27.88;100730.20;2112905;84;32269;-57
2022/06/11 14:33:41;;;;;;;3.85;1.50;;;;;;;27.98;27.85;100723.33;2112915;84;33897;-57
2022/06/11 14:36:43;;;;;;;3.22;1.37;;;;;;;27.95;28.23;100727.31;2113307;84;29317;-57
2022/06/11 14:39:46;;;;;;;4.37;1.67;;;;;;;27.88;28.28;100725.77;2113099;84;27693;-57
2022/06/11 14:43:00;;;;;;;3.05;1.20;;;;;;;27.75;28.39;100726.37;2112711;83;29238;-58
2022/06/11 14:46:02;;;;;;;4.00;1.22;;;;;;;27.64;28.68;100721.23;2114183;84;32243;-56
2022/06/11 14:49:28;;;;;;;2.80;1.42;;;;;;;27.55;28.76;100725.91;2113630;84;33899;-57
2022/06/11 14:52:37;;;;;;;2.72;1.52;;;;;;;27.45;28.70;100718.36;2138273;81;30531;-56